Time;durP1;ratioP1;P1;durP2;ratioP2;P2;SDS_P1;SDS_P2;PMS_P1;PMS_P2;Temp;Humidity;BMP_temperature;BMP_pressure;BME280_temperature;BME280_humidity;BME280_pressure;Samples;Min_cycle;Max_cycle;Signal;HPM_P1;HPM_P2
2021/04/16 00:03:26;;;;;;;;;;;2.40;99.90;;;;;;10396891;28;19925;-88
2021/04/16 00:08:30;;;;;;;;;;;2.30;99.90;;;;;;10413090;28;19932;-88
2021/04/16 00:13:32;;;;;;;;;;;2.20;99.90;;;;;;10412658;28;20079;-88
2021/04/16 00:18:34;;;;;;;;;;;2.20;99.90;;;;;;10406650;23;20725;-88
2021/04/16 00:23:35;;;;;;;;;;;4.00;99.90;;;;;;10492727;28;19931;-89
2021/04/16 00:28:37;;;;;;;;;;;2.10;99.90;;;;;;10493794;28;19924;-89
2021/04/16 00:33:38;;;;;;;;;;;2.10;99.90;;;;;;10493034;28;19925;-89
2021/04/16 00:38:40;;;;;;;;;;;1.90;99.90;;;;;;10476859;28;19925;-89
2021/04/16 00:43:41;;;;;;;;;;;2.00;99.90;;;;;;10493392;28;19925;-89
2021/04/16 00:48:53;;;;;;;;;;;1.90;99.90;;;;;;10495318;27;19940;-89
2021/04/16 00:53:55;;;;;;;;;;;1.90;99.90;;;;;;10493208;28;20396;-89
2021/04/16 00:58:56;;;;;;;;;;;1.90;99.90;;;;;;10475533;28;20383;-89
2021/04/16 01:03:58;;;;;;;;;;;1.90;99.90;;;;;;10451434;28;19925;-89
2021/04/16 01:09:00;;;;;;;;;;;2.00;99.90;;;;;;10433998;28;20397;-89
2021/04/16 01:14:01;;;;;;;;;;;1.90;99.90;;;;;;10481775;28;19925;-88
2021/04/16 01:19:06;;;;;;;;;;;1.80;99.90;;;;;;10468892;28;20015;-89
2021/04/16 01:24:17;;;;;;;;;;;1.90;99.90;;;;;;10369308;28;20035;-88
2021/04/16 01:29:19;;;;;;;;;;;1.60;99.90;;;;;;10366921;28;20403;-88
2021/04/16 01:34:24;;;;;;;;;;;1.50;99.90;;;;;;10369392;28;19932;-89
2021/04/16 01:39:27;;;;;;;;;;;1.50;99.90;;;;;;10368776;28;20261;-88
2021/04/16 01:44:29;;;;;;;;;;;1.30;99.90;;;;;;10368273;28;19932;-89
2021/04/16 01:49:33;;;;;;;;;;;3.10;99.90;;;;;;10376331;28;20379;-88
2021/04/16 01:54:39;;;;;;;;;;;3.50;99.90;;;;;;10408762;28;19925;-89
2021/04/16 01:59:41;;;;;;;;;;;1.30;99.90;;;;;;10409314;28;20359;-89
2021/04/16 02:04:43;;;;;;;;;;;1.40;99.90;;;;;;10409695;28;19932;-89
2021/04/16 02:09:44;;;;;;;;;;;1.90;99.90;;;;;;10406765;28;19925;-89
2021/04/16 02:14:46;;;;;;;;;;;0.90;99.90;;;;;;10513994;28;20374;-89
2021/04/16 02:19:47;;;;;;;;;;;1.80;99.90;;;;;;10542978;28;19990;-89
2021/04/16 02:24:48;;;;;;;;;;;1.10;99.90;;;;;;10462090;28;19924;-88
2021/04/16 02:29:51;;;;;;;;;;;2.00;99.90;;;;;;10432750;28;19925;-89
2021/04/16 02:34:52;;;;;;;;;;;1.00;99.90;;;;;;10488706;28;19928;-88
2021/04/16 02:39:53;;;;;;;;;;;3.30;99.90;;;;;;10492253;28;19931;-89
2021/04/16 02:44:54;;;;;;;;;;;3.40;99.90;;;;;;10495269;28;19925;-89
2021/04/16 02:49:56;;;;;;;;;;;1.10;99.90;;;;;;10495226;27;20268;-89
2021/04/16 02:54:57;;;;;;;;;;;1.20;99.90;;;;;;10498148;28;19925;-89
2021/04/16 02:59:59;;;;;;;;;;;1.30;99.90;;;;;;10479620;28;20374;-89
2021/04/16 03:05:00;;;;;;;;;;;1.20;99.90;;;;;;10496019;28;19947;-89
2021/04/16 03:10:03;;;;;;;;;;;1.00;99.90;;;;;;10479816;28;19931;-89
2021/04/16 03:15:05;;;;;;;;;;;1.00;99.90;;;;;;10495654;28;20289;-89
2021/04/16 03:20:08;;;;;;;;;;;1.00;99.90;;;;;;10481490;28;19925;-89
2021/04/16 03:25:11;;;;;;;;;;;1.00;99.90;;;;;;10493377;28;20027;-88
2021/04/16 03:30:14;;;;;;;;;;;1.00;99.90;;;;;;10495162;28;19950;-89
2021/04/16 03:35:17;;;;;;;;;;;0.90;99.90;;;;;;10495334;28;19931;-89
2021/04/16 03:40:25;;;;;;;;;;;0.90;99.90;;;;;;10475220;28;20375;-89
2021/04/16 03:45:27;;;;;;;;;;;0.90;99.90;;;;;;10453388;28;20290;-89
2021/04/16 03:50:30;;;;;;;;;;;0.90;99.90;;;;;;10487223;28;19925;-89
2021/04/16 03:55:33;;;;;;;;;;;0.90;99.90;;;;;;10494937;28;19983;-89
2021/04/16 04:00:39;;;;;;;;;;;0.80;99.90;;;;;;10469502;28;20371;-89
2021/04/16 04:05:41;;;;;;;;;;;1.50;99.90;;;;;;10453868;28;20278;-89
2021/04/16 04:10:42;;;;;;;;;;;0.70;99.90;;;;;;10453070;28;19935;-89
2021/04/16 04:15:43;;;;;;;;;;;0.70;99.90;;;;;;10452386;28;19924;-89
2021/04/16 04:21:00;;;;;;;;;;;0.70;99.90;;;;;;10454062;28;19925;-88
2021/04/16 04:26:02;;;;;;;;;;;0.70;99.90;;;;;;10437810;28;19932;-89
2021/04/16 04:31:04;;;;;;;;;;;0.60;99.90;;;;;;10481600;28;19925;-88
2021/04/16 04:36:05;;;;;;;;;;;0.60;99.90;;;;;;10493615;28;19925;-89
2021/04/16 04:41:07;;;;;;;;;;;0.50;99.90;;;;;;10494532;28;19929;-88
2021/04/16 04:46:08;;;;;;;;;;;0.60;99.90;;;;;;10664672;27;19923;-89
2021/04/16 04:51:10;;;;;;;;;;;0.50;99.90;;;;;;10652667;27;19927;-88
2021/04/16 04:56:12;;;;;;;;;;;1.20;99.90;;;;;;10669494;27;19947;-88
2021/04/16 05:01:13;;;;;;;;;;;1.10;99.90;;;;;;10668057;27;19923;-88
2021/04/16 05:06:15;;;;;;;;;;;0.60;99.90;;;;;;10668031;27;19958;-88
2021/04/16 05:11:16;;;;;;;;;;;0.60;99.90;;;;;;10552138;27;19931;-89
2021/04/16 05:16:18;;;;;;;;;;;0.60;99.90;;;;;;10489799;28;19928;-89
2021/04/16 05:21:19;;;;;;;;;;;0.70;99.90;;;;;;10460750;28;19952;-89
2021/04/16 05:26:21;;;;;;;;;;;0.80;99.90;;;;;;10450903;28;19925;-89
2021/04/16 05:31:22;;;;;;;;;;;0.90;99.90;;;;;;10451678;28;20444;-89
2021/04/16 05:36:23;;;;;;;;;;;0.90;99.90;;;;;;10449912;28;19925;-89
2021/04/16 05:41:25;;;;;;;;;;;0.90;99.90;;;;;;10484411;28;19931;-89
2021/04/16 05:46:26;;;;;;;;;;;1.00;99.90;;;;;;10492284;28;19934;-89
2021/04/16 05:51:28;;;;;;;;;;;2.00;99.90;;;;;;10473976;28;19928;-89
2021/04/16 05:56:29;;;;;;;;;;;1.20;99.90;;;;;;10474859;28;19931;-90
2021/04/16 06:01:32;;;;;;;;;;;1.40;99.90;;;;;;10491374;28;19925;-89
2021/04/16 06:06:33;;;;;;;;;;;1.60;99.90;;;;;;10492179;28;19969;-89
2021/04/16 06:11:35;;;;;;;;;;;1.60;99.90;;;;;;10439084;28;19925;-89
2021/04/16 06:16:36;;;;;;;;;;;1.80;99.90;;;;;;10454318;28;19925;-90
2021/04/16 06:21:38;;;;;;;;;;;2.30;99.90;;;;;;10456206;28;19925;-89
2021/04/16 06:26:39;;;;;;;;;;;3.50;99.90;;;;;;10439461;28;20286;-89
2021/04/16 06:31:41;;;;;;;;;;;8.60;99.90;;;;;;10456920;28;19984;-89
2021/04/16 06:36:43;;;;;;;;;;;9.00;99.90;;;;;;10419190;22;20446;-89
2021/04/16 06:41:45;;;;;;;;;;;10.00;97.90;;;;;;10415939;28;19947;-89
2021/04/16 06:46:49;;;;;;;;;;;11.40;96.50;;;;;;10414392;28;20012;-89
2021/04/16 06:52:09;;;;;;;;;;;10.70;97.00;;;;;;10397212;28;19925;-89
2021/04/16 06:57:20;;;;;;;;;;;8.00;99.90;;;;;;10415424;28;19925;-89
2021/04/16 07:02:23;;;;;;;;;;;5.90;99.90;;;;;;10414776;28;20265;-89
2021/04/16 07:07:44;;;;;;;;;;;6.60;99.90;;;;;;10397518;28;19925;-89
2021/04/16 07:12:46;;;;;;;;;;;5.70;99.90;;;;;;10414247;28;19931;-89
2021/04/16 07:17:48;;;;;;;;;;;7.60;99.90;;;;;;10414256;28;20252;-89
2021/04/16 07:22:51;;;;;;;;;;;6.90;99.90;;;;;;10413007;28;20368;-90
2021/04/16 07:27:58;;;;;;;;;;;7.50;99.90;;;;;;10411132;28;19929;-90
2021/04/16 07:33:00;;;;;;;;;;;7.80;99.90;;;;;;10395968;28;20283;-90
2021/04/16 07:38:03;;;;;;;;;;;7.40;99.90;;;;;;10406456;28;19933;-90
2021/04/16 07:43:09;;;;;;;;;;;7.80;99.90;;;;;;10413829;28;19960;-90
2021/04/16 07:48:19;;;;;;;;;;;9.40;99.90;;;;;;10409964;28;19925;-87
2021/04/16 07:53:39;;;;;;;;;;;10.50;99.70;;;;;;10413298;28;19932;-89
2021/04/16 07:58:41;;;;;;;;;;;9.90;99.70;;;;;;10412801;28;20439;-88
2021/04/16 08:03:47;;;;;;;;;;;10.70;96.00;;;;;;10412875;28;19925;-88
2021/04/16 08:08:48;;;;;;;;;;;11.20;97.10;;;;;;10497010;27;19971;-89
2021/04/16 08:13:50;;;;;;;;;;;10.80;94.90;;;;;;10497592;27;19947;-88
2021/04/16 08:18:51;;;;;;;;;;;10.80;93.20;;;;;;10411670;28;19925;-88
2021/04/16 08:23:56;;;;;;;;;;;12.30;91.40;;;;;;10412013;28;19929;-88
2021/04/16 08:29:06;;;;;;;;;;;12.30;87.50;;;;;;10411519;28;19932;-88
2021/04/16 08:34:13;;;;;;;;;;;11.80;90.70;;;;;;10416841;28;19925;-88
2021/04/16 08:39:33;;;;;;;;;;;13.30;81.50;;;;;;10435518;28;19947;-88
2021/04/16 08:44:38;;;;;;;;;;;13.40;76.20;;;;;;10452361;28;19925;-88
2021/04/16 08:49:41;;;;;;;;;;;14.00;76.80;;;;;;10414732;28;19926;-88
2021/04/16 08:54:44;;;;;;;;;;;13.20;71.10;;;;;;10479532;28;19931;-88
2021/04/16 09:00:00;;;;;;;;;;;14.60;66.10;;;;;;10479467;28;19933;-88
2021/04/16 09:05:25;;;;;;;;;;;13.10;71.80;;;;;;10495507;27;19925;-88
2021/04/16 09:10:48;;;;;;;;;;;14.20;64.40;;;;;;10411179;28;19925;-88
2021/04/16 09:15:49;;;;;;;;;;;14.10;67.50;;;;;;10495743;27;20023;-88
2021/04/16 09:20:51;;;;;;;;;;;15.20;57.10;;;;;;10477405;28;19925;-88
2021/04/16 09:25:56;;;;;;;;;;;14.30;57.80;;;;;;10410850;28;19926;-88
2021/04/16 09:30:59;;;;;;;;;;;14.50;57.90;;;;;;10478462;28;19933;-88
2021/04/16 09:36:03;;;;;;;;;;;14.90;58.80;;;;;;10475417;27;20016;-88
2021/04/16 09:41:10;;;;;;;;;;;14.40;54.70;;;;;;10416370;28;19932;-87
2021/04/16 09:46:30;;;;;;;;;;;14.30;56.70;;;;;;10418091;28;19925;-88
2021/04/16 09:51:34;;;;;;;;;;;13.90;48.70;;;;;;10438011;28;20287;-87
2021/04/16 09:56:36;;;;;;;;;;;14.60;54.90;;;;;;10458569;28;20021;-87
2021/04/16 10:01:57;;;;;;;;;;;13.90;52.60;;;;;;10440757;28;20011;-87
2021/04/16 10:07:02;;;;;;;;;;;15.10;52.10;;;;;;10526917;27;19929;-87
2021/04/16 10:12:23;;;;;;;;;;;15.70;48.60;;;;;;10526233;27;19936;-87
2021/04/16 10:17:25;;;;;;;;;;;14.70;51.70;;;;;;10456401;28;19924;-87
2021/04/16 10:22:32;;;;;;;;;;;14.80;49.70;;;;;;10439665;28;20347;-87
2021/04/16 12:41:51;;;;;;;;;;;15.90;45.20;;;;;;10627018;27;19958;-87
2021/04/16 12:46:54;;;;;;;;;;;15.40;46.70;;;;;;10627185;27;19924;-87
2021/04/16 12:51:56;;;;;;;;;;;15.30;48.10;;;;;;10627011;27;19923;-87
2021/04/16 12:56:57;;;;;;;;;;;15.80;47.30;;;;;;10625837;27;19924;-87
2021/04/16 13:01:59;;;;;;;;;;;14.40;46.70;;;;;;10625994;27;20343;-87
2021/04/16 13:07:01;;;;;;;;;;;14.20;48.00;;;;;;10626421;27;19931;-87
2021/04/16 13:12:03;;;;;;;;;;;13.10;43.90;;;;;;10625439;27;19923;-87
2021/04/16 13:17:04;;;;;;;;;;;13.80;47.40;;;;;;10625233;27;20267;-87
2021/04/16 13:22:07;;;;;;;;;;;13.20;47.40;;;;;;10625893;27;19924;-87
2021/04/16 13:27:10;;;;;;;;;;;13.60;46.20;;;;;;10625740;27;19953;-87
2021/04/16 13:32:13;;;;;;;;;;;14.00;43.70;;;;;;10624998;27;19924;-87
2021/04/16 13:37:18;;;;;;;;;;;15.10;45.30;;;;;;10624118;27;19927;-87
2021/04/16 13:42:20;;;;;;;;;;;14.50;44.50;;;;;;10623690;27;20388;-87
2021/04/16 13:47:24;;;;;;;;;;;13.20;44.70;;;;;;10623230;28;19928;-87
2021/04/16 13:52:26;;;;;;;;;;;14.90;46.70;;;;;;10622516;28;19992;-87
2021/04/16 13:57:27;;;;;;;;;;;15.00;42.70;;;;;;10622586;28;19931;-87
2021/04/16 14:02:33;;;;;;;;;;;15.40;46.70;;;;;;10623178;28;20274;-87
2021/04/16 14:07:35;;;;;;;;;;;14.30;50.10;;;;;;10622647;28;20022;-87
2021/04/16 14:12:37;;;;;;;;;;;14.50;46.80;;;;;;10624689;27;19930;-87
2021/04/16 14:17:40;;;;;;;;;;;14.80;46.90;;;;;;10598748;28;19928;-87
2021/04/16 14:22:43;;;;;;;;;;;15.10;47.90;;;;;;10581544;28;20378;-87
2021/04/16 14:27:45;;;;;;;;;;;14.60;46.80;;;;;;10582200;28;19928;-87
2021/04/16 14:32:48;;;;;;;;;;;15.10;46.00;;;;;;10582121;28;19924;-87
2021/04/16 14:37:49;;;;;;;;;;;15.30;45.20;;;;;;10624035;27;19930;-87
2021/04/16 14:42:51;;;;;;;;;;;14.70;46.40;;;;;;10631257;27;19924;-87
2021/04/16 14:47:55;;;;;;;;;;;14.90;46.10;;;;;;10632185;27;19930;-87
2021/04/16 14:53:05;;;;;;;;;;;15.00;46.00;;;;;;10631661;27;19923;-87
2021/04/16 14:58:07;;;;;;;;;;;15.10;47.10;;;;;;10631820;27;19924;-87
2021/04/16 15:03:09;;;;;;;;;;;15.20;46.30;;;;;;10630429;27;19927;-87
2021/04/16 15:08:12;;;;;;;;;;;15.00;45.10;;;;;;10590276;27;19923;-86
2021/04/16 15:13:20;;;;;;;;;;;14.40;47.80;;;;;;10588670;28;19930;-87
2021/04/16 15:18:21;;;;;;;;;;;14.40;49.70;;;;;;10586395;28;19928;-88
2021/04/16 15:23:23;;;;;;;;;;;15.10;51.00;;;;;;10588251;27;19923;-88
2021/04/16 15:28:24;;;;;;;;;;;14.60;49.20;;;;;;10612143;27;19950;-87
2021/04/16 15:49:23;;;;;;;;;;;14.80;51.20;;;;;;10585261;28;20367;-88
2021/04/16 15:54:25;;;;;;;;;;;14.90;53.30;;;;;;10585684;28;20022;-88
2021/04/16 15:59:39;;;;;;;;;;;14.40;51.50;;;;;;10570194;28;19924;-87
2021/04/16 16:04:40;;;;;;;;;;;14.40;48.60;;;;;;10585295;28;19923;-87
2021/04/16 16:09:42;;;;;;;;;;;14.30;51.00;;;;;;10584415;28;20375;-88
2021/04/16 16:15:03;;;;;;;;;;;14.50;51.70;;;;;;10603027;27;20023;-88
2021/04/16 16:20:06;;;;;;;;;;;13.90;50.50;;;;;;10626253;27;19961;-87
2021/04/16 16:25:10;;;;;;;;;;;13.50;52.90;;;;;;10608250;27;20015;-87
2021/04/16 16:30:16;;;;;;;;;;;13.50;55.10;;;;;;10626100;27;20212;-88
2021/04/16 16:35:19;;;;;;;;;;;13.50;53.80;;;;;;10625914;27;20014;-88
2021/04/16 16:40:22;;;;;;;;;;;13.80;53.20;;;;;;10622449;27;19924;-88
2021/04/16 16:45:28;;;;;;;;;;;13.10;55.60;;;;;;10597105;27;20344;-88
2021/04/16 16:50:33;;;;;;;;;;;12.90;55.60;;;;;;10626048;27;19923;-88
2021/04/16 16:55:35;;;;;;;;;;;12.70;59.30;;;;;;10626654;27;19927;-87
2021/04/16 17:00:40;;;;;;;;;;;12.70;58.20;;;;;;10626420;27;19923;-87
2021/04/16 17:05:42;;;;;;;;;;;12.50;58.90;;;;;;10626745;27;19930;-88
2021/04/16 17:10:44;;;;;;;;;;;12.30;60.50;;;;;;10625050;27;20022;-88
2021/04/16 17:15:49;;;;;;;;;;;12.30;61.50;;;;;;10624906;27;19934;-88
2021/04/16 17:20:51;;;;;;;;;;;12.20;62.00;;;;;;10623736;27;19976;-87
2021/04/16 17:25:53;;;;;;;;;;;12.30;65.70;;;;;;10624293;27;19923;-88
2021/04/16 17:30:55;;;;;;;;;;;12.10;64.90;;;;;;10582454;27;19977;-88
2021/04/16 17:35:57;;;;;;;;;;;12.00;64.30;;;;;;10615070;27;19928;-88
2021/04/16 17:41:21;;;;;;;;;;;11.70;68.30;;;;;;10581309;28;19928;-88
2021/04/16 17:46:22;;;;;;;;;;;11.50;71.00;;;;;;10581335;28;19924;-88
2021/04/16 17:51:25;;;;;;;;;;;11.40;69.60;;;;;;10614550;28;19923;-88
2021/04/16 17:56:30;;;;;;;;;;;11.40;69.90;;;;;;10624133;27;20018;-88
2021/04/16 18:01:32;;;;;;;;;;;11.30;70.40;;;;;;10581665;28;19924;-88
2021/04/16 18:06:38;;;;;;;;;;;11.30;75.10;;;;;;10581822;28;20689;-88
2021/04/16 18:11:43;;;;;;;;;;;11.30;72.40;;;;;;10587867;27;19923;-88
2021/04/16 18:16:46;;;;;;;;;;;11.20;73.60;;;;;;10588517;28;20447;-88
2021/04/16 18:21:49;;;;;;;;;;;11.20;77.80;;;;;;10589604;28;19924;-87
2021/04/16 18:26:56;;;;;;;;;;;11.00;78.00;;;;;;10605997;27;19923;-88
2021/04/16 18:31:58;;;;;;;;;;;11.00;80.40;;;;;;10632336;27;19924;-88
2021/04/16 18:37:03;;;;;;;;;;;10.90;83.10;;;;;;10609835;27;19931;-88
2021/04/16 18:42:10;;;;;;;;;;;11.40;79.90;;;;;;10625132;28;19940;-87
2021/04/16 18:47:12;;;;;;;;;;;10.80;80.20;;;;;;10629228;27;20022;-88
2021/04/16 18:52:22;;;;;;;;;;;10.70;84.10;;;;;;10628000;27;19989;-88
2021/04/16 18:57:24;;;;;;;;;;;10.50;83.40;;;;;;10627096;28;20326;-88
2021/04/16 19:02:26;;;;;;;;;;;10.30;85.30;;;;;;10628709;28;19929;-88
2021/04/16 19:07:27;;;;;;;;;;;10.20;85.00;;;;;;10590238;22;1314395;-85
2021/04/16 19:12:28;;;;;;;;;;;10.00;87.60;;;;;;10587451;27;19927;-86
2021/04/16 19:17:30;;;;;;;;;;;9.80;90.00;;;;;;10610029;27;19930;-85
2021/04/16 19:22:40;;;;;;;;;;;9.60;90.10;;;;;;10594437;27;19974;-85
2021/04/16 19:27:41;;;;;;;;;;;9.40;90.90;;;;;;10616589;27;19967;-85
2021/04/16 19:32:42;;;;;;;;;;;9.20;92.60;;;;;;10587576;28;19971;-85
2021/04/16 19:37:46;;;;;;;;;;;9.10;92.60;;;;;;10620159;27;19928;-85
2021/04/16 19:42:51;;;;;;;;;;;8.90;93.10;;;;;;10618806;27;20389;-86
2021/04/16 20:20:10;;;;;;;;;;;8.00;92.20;;;;;;10611520;27;19923;-86
2021/04/16 20:25:21;;;;;;;;;;;7.90;92.70;;;;;;10617046;27;20042;-86
2021/04/16 20:30:26;;;;;;;;;;;7.80;92.60;;;;;;10606698;27;20281;-85
2021/04/16 20:35:30;;;;;;;;;;;7.70;93.30;;;;;;10618884;27;20006;-85
2021/04/16 20:40:32;;;;;;;;;;;7.60;93.10;;;;;;10607841;27;19932;-85
2021/04/16 20:45:33;;;;;;;;;;;7.50;93.40;;;;;;10606139;27;19923;-85
2021/04/16 20:50:34;;;;;;;;;;;7.50;93.40;;;;;;10623269;27;19929;-85
2021/04/16 20:55:38;;;;;;;;;;;7.80;93.20;;;;;;10599005;27;19932;-85
2021/04/16 21:00:40;;;;;;;;;;;7.30;93.90;;;;;;10606140;27;19970;-85
2021/04/16 21:05:42;;;;;;;;;;;7.20;94.20;;;;;;10624277;27;19927;-85
2021/04/16 21:10:43;;;;;;;;;;;8.10;94.80;;;;;;10624060;27;19937;-86
2021/04/16 21:15:44;;;;;;;;;;;7.40;94.90;;;;;;10600039;27;19946;-86
2021/04/16 21:20:48;;;;;;;;;;;7.30;95.40;;;;;;10608310;27;20297;-85
2021/04/16 21:25:49;;;;;;;;;;;9.20;95.70;;;;;;10605501;27;19930;-86
2021/04/16 21:30:51;;;;;;;;;;;6.60;95.80;;;;;;10623542;27;19928;-85
2021/04/16 21:35:52;;;;;;;;;;;6.60;96.10;;;;;;10598678;27;19947;-86
2021/04/16 21:40:54;;;;;;;;;;;6.50;96.60;;;;;;10575686;27;19923;-85
2021/04/16 21:45:58;;;;;;;;;;;6.80;97.10;;;;;;10623474;27;20002;-86
2021/04/16 21:51:22;;;;;;;;;;;6.20;97.60;;;;;;10605939;28;20685;-85
2021/04/16 21:56:25;;;;;;;;;;;6.20;98.30;;;;;;10614437;28;19924;-85
2021/04/16 22:01:32;;;;;;;;;;;6.10;98.70;;;;;;10605263;28;19958;-85
2021/04/16 22:06:51;;;;;;;;;;;6.10;99.80;;;;;;10621814;28;19927;-85
2021/04/16 22:11:55;;;;;;;;;;;6.00;99.90;;;;;;10622705;28;19923;-85
2021/04/16 22:16:59;;;;;;;;;;;6.00;99.90;;;;;;10604952;28;19933;-85
2021/04/16 22:22:00;;;;;;;;;;;5.90;99.90;;;;;;10620650;27;20374;-85
2021/04/16 22:27:22;;;;;;;;;;;6.30;99.90;;;;;;10597538;28;19932;-85
2021/04/16 22:32:24;;;;;;;;;;;6.00;99.90;;;;;;10598502;28;20270;-85
2021/04/16 22:37:28;;;;;;;;;;;5.90;99.90;;;;;;10603461;28;20366;-86
2021/04/16 22:42:33;;;;;;;;;;;5.80;99.90;;;;;;10584524;27;20301;-85
2021/04/16 22:47:36;;;;;;;;;;;5.80;99.90;;;;;;10622222;27;19924;-86
2021/04/16 22:52:40;;;;;;;;;;;6.20;99.90;;;;;;10617904;28;19927;-86
2021/04/16 22:57:41;;;;;;;;;;;6.20;99.90;;;;;;10609493;27;19930;-86
2021/04/16 23:02:47;;;;;;;;;;;5.80;99.90;;;;;;10586313;28;19946;-86
2021/04/16 23:07:48;;;;;;;;;;;5.80;99.90;;;;;;10585890;28;20366;-86
2021/04/16 23:13:13;;;;;;;;;;;5.50;99.90;;;;;;10585939;28;19920;-86
2021/04/16 23:18:14;;;;;;;;;;;5.50;99.90;;;;;;10580290;27;20014;-86
2021/04/16 23:23:20;;;;;;;;;;;5.30;99.90;;;;;;10554530;27;19979;-86
2021/04/16 23:28:26;;;;;;;;;;;5.30;99.90;;;;;;10600796;27;19929;-86
2021/04/16 23:33:46;;;;;;;;;;;5.10;99.90;;;;;;10628559;27;19927;-86
2021/04/16 23:38:48;;;;;;;;;;;5.10;99.90;;;;;;10609293;27;19966;-86
2021/04/16 23:43:49;;;;;;;;;;;5.00;99.90;;;;;;10609312;27;19923;-86
2021/04/16 23:48:50;;;;;;;;;;;4.80;99.90;;;;;;10592334;27;19933;-86
2021/04/16 23:53:51;;;;;;;;;;;4.90;99.90;;;;;;10597825;27;19930;-86
2021/04/16 23:58:53;;;;;;;;;;;6.60;99.90;;;;;;10567976;28;20397;-86
